sensor_id;sensor_type;location;lat;lon;timestamp;pressure;altitude;pressure_sealevel;temperature
72054;BMP280;59918;51.280;7.950;2023-10-31T00:02:21;95970.50;;;12.90
72054;BMP280;59918;51.280;7.950;2023-10-31T00:04:46;95968.47;;;12.87
72054;BMP280;59918;51.280;7.950;2023-10-31T00:07:11;95974.13;;;12.84
72054;BMP280;59918;51.280;7.950;2023-10-31T00:09:36;95976.19;;;12.82
72054;BMP280;59918;51.280;7.950;2023-10-31T00:12:02;95985.44;;;12.78
72054;BMP280;59918;51.280;7.950;2023-10-31T00:14:27;95988.31;;;12.76
72054;BMP280;59918;51.280;7.950;2023-10-31T00:16:52;96021.81;;;12.72
72054;BMP280;59918;51.280;7.950;2023-10-31T00:19:18;96016.41;;;12.58
72054;BMP280;59918;51.280;7.950;2023-10-31T00:21:43;96014.88;;;12.47
72054;BMP280;59918;51.280;7.950;2023-10-31T00:24:08;96026.19;;;12.41
72054;BMP280;59918;51.280;7.950;2023-10-31T00:26:34;96033.41;;;12.30
72054;BMP280;59918;51.280;7.950;2023-10-31T00:28:59;96042.41;;;12.22
72054;BMP280;59918;51.280;7.950;2023-10-31T00:31:24;96036.97;;;12.14
72054;BMP280;59918;51.280;7.950;2023-10-31T00:33:49;96042.34;;;12.07
72054;BMP280;59918;51.280;7.950;2023-10-31T00:36:17;96060.63;;;12.01
72054;BMP280;59918;51.280;7.950;2023-10-31T00:38:42;96066.22;;;11.88
72054;BMP280;59918;51.280;7.950;2023-10-31T00:41:10;96073.19;;;11.83
72054;BMP280;59918;51.280;7.950;2023-10-31T00:43:35;96092.47;;;11.75
72054;BMP280;59918;51.280;7.950;2023-10-31T00:46:03;96092.44;;;11.70
72054;BMP280;59918;51.280;7.950;2023-10-31T00:48:28;96089.31;;;11.64
72054;BMP280;59918;51.280;7.950;2023-10-31T00:50:53;96103.94;;;11.58
72054;BMP280;59918;51.280;7.950;2023-10-31T00:53:18;96090.81;;;11.55
72054;BMP280;59918;51.280;7.950;2023-10-31T00:55:44;96099.03;;;11.52
72054;BMP280;59918;51.280;7.950;2023-10-31T00:58:09;96088.47;;;11.48
72054;BMP280;59918;51.280;7.950;2023-10-31T01:00:34;96094.66;;;11.47
72054;BMP280;59918;51.280;7.950;2023-10-31T01:02:59;96105.69;;;11.48
72054;BMP280;59918;51.280;7.950;2023-10-31T01:05:25;96093.59;;;11.43
72054;BMP280;59918;51.280;7.950;2023-10-31T01:07:50;96085.31;;;11.41
72054;BMP280;59918;51.280;7.950;2023-10-31T01:10:15;96093.28;;;11.40
72054;BMP280;59918;51.280;7.950;2023-10-31T01:12:40;96095.31;;;11.38
72054;BMP280;59918;51.280;7.950;2023-10-31T01:15:06;96091.44;;;11.35
72054;BMP280;59918;51.280;7.950;2023-10-31T01:17:31;96095.03;;;11.34
72054;BMP280;59918;51.280;7.950;2023-10-31T01:19:56;96097.09;;;11.32
72054;BMP280;59918;51.280;7.950;2023-10-31T01:22:22;96099.91;;;11.31
72054;BMP280;59918;51.280;7.950;2023-10-31T01:24:47;96107.84;;;11.29
72054;BMP280;59918;51.280;7.950;2023-10-31T01:27:12;96114.03;;;11.28
72054;BMP280;59918;51.280;7.950;2023-10-31T01:29:37;96122.53;;;11.29
72054;BMP280;59918;51.280;7.950;2023-10-31T01:32:03;96121.00;;;11.28
72054;BMP280;59918;51.280;7.950;2023-10-31T01:34:28;96126.13;;;11.28
72054;BMP280;59918;51.280;7.950;2023-10-31T01:36:53;96117.88;;;11.26
72054;BMP280;59918;51.280;7.950;2023-10-31T01:39:19;96129.72;;;11.27
72054;BMP280;59918;51.280;7.950;2023-10-31T01:41:44;96124.81;;;11.26
72054;BMP280;59918;51.280;7.950;2023-10-31T01:44:10;96124.03;;;11.25
72054;BMP280;59918;51.280;7.950;2023-10-31T01:46:35;96136.66;;;11.27
72054;BMP280;59918;51.280;7.950;2023-10-31T01:49:01;96132.53;;;11.26
72054;BMP280;59918;51.280;7.950;2023-10-31T01:51:28;96131.22;;;11.23
72054;BMP280;59918;51.280;7.950;2023-10-31T01:53:53;96130.69;;;11.21
72054;BMP280;59918;51.280;7.950;2023-10-31T01:56:19;96125.03;;;11.19
72054;BMP280;59918;51.280;7.950;2023-10-31T01:58:45;96136.09;;;11.20
72054;BMP280;59918;51.280;7.950;2023-10-31T02:01:12;96140.47;;;11.19
72054;BMP280;59918;51.280;7.950;2023-10-31T02:03:37;96133.78;;;11.18
72054;BMP280;59918;51.280;7.950;2023-10-31T02:06:03;96142.03;;;11.20
72054;BMP280;59918;51.280;7.950;2023-10-31T02:08:28;96127.13;;;11.22
72054;BMP280;59918;51.280;7.950;2023-10-31T02:10:54;96142.56;;;11.22
72054;BMP280;59918;51.280;7.950;2023-10-31T02:13:19;96133.28;;;11.21
72054;BMP280;59918;51.280;7.950;2023-10-31T02:15:47;96143.56;;;11.21
72054;BMP280;59918;51.280;7.950;2023-10-31T02:18:13;96142.25;;;11.19
72054;BMP280;59918;51.280;7.950;2023-10-31T02:20:38;96153.31;;;11.19
72054;BMP280;59918;51.280;7.950;2023-10-31T02:23:04;96150.19;;;11.12
72054;BMP280;59918;51.280;7.950;2023-10-31T02:25:29;96165.38;;;11.14
72054;BMP280;59918;51.280;7.950;2023-10-31T02:27:55;96151.72;;;11.13
72054;BMP280;59918;51.280;7.950;2023-10-31T02:30:20;96157.13;;;11.12
72054;BMP280;59918;51.280;7.950;2023-10-31T02:32:46;96155.06;;;11.09
72054;BMP280;59918;51.280;7.950;2023-10-31T02:35:11;96154.81;;;11.10
72054;BMP280;59918;51.280;7.950;2023-10-31T02:37:37;96149.38;;;11.07
72054;BMP280;59918;51.280;7.950;2023-10-31T02:40:02;96161.47;;;11.06
72054;BMP280;59918;51.280;7.950;2023-10-31T02:42:27;96160.41;;;11.02
72054;BMP280;59918;51.280;7.950;2023-10-31T02:44:53;96168.13;;;11.02
72054;BMP280;59918;51.280;7.950;2023-10-31T02:47:19;96166.78;;;11.00
72054;BMP280;59918;51.280;7.950;2023-10-31T02:49:44;96162.38;;;10.95
72054;BMP280;59918;51.280;7.950;2023-10-31T02:52:09;96168.81;;;10.93
72054;BMP280;59918;51.280;7.950;2023-10-31T02:54:35;96166.69;;;10.90
72054;BMP280;59918;51.280;7.950;2023-10-31T02:57:00;96156.94;;;10.92
72054;BMP280;59918;51.280;7.950;2023-10-31T02:59:25;96165.94;;;10.90
72054;BMP280;59918;51.280;7.950;2023-10-31T03:01:52;96177.25;;;10.89
72054;BMP280;59918;51.280;7.950;2023-10-31T03:04:17;96173.34;;;10.86
72054;BMP280;59918;51.280;7.950;2023-10-31T03:06:43;96182.34;;;10.84
72054;BMP280;59918;51.280;7.950;2023-10-31T03:09:08;96181.34;;;10.85
72054;BMP280;59918;51.280;7.950;2023-10-31T03:11:33;96163.34;;;10.85
72054;BMP280;59918;51.280;7.950;2023-10-31T03:13:59;96170.78;;;10.86
72054;BMP280;59918;51.280;7.950;2023-10-31T03:16:24;96179.28;;;10.87
72054;BMP280;59918;51.280;7.950;2023-10-31T03:18:49;96169.00;;;10.87
72054;BMP280;59918;51.280;7.950;2023-10-31T03:21:15;96175.22;;;10.91
72054;BMP280;59918;51.280;7.950;2023-10-31T03:23:42;96176.75;;;10.92
72054;BMP280;59918;51.280;7.950;2023-10-31T03:26:07;96182.94;;;10.91
72054;BMP280;59918;51.280;7.950;2023-10-31T03:28:32;96170.84;;;10.91
72054;BMP280;59918;51.280;7.950;2023-10-31T03:30:57;96174.41;;;10.90
72054;BMP280;59918;51.280;7.950;2023-10-31T03:33:23;96183.69;;;10.91
72054;BMP280;59918;51.280;7.950;2023-10-31T03:35:48;96190.63;;;10.91
72054;BMP280;59918;51.280;7.950;2023-10-31T03:38:13;96188.53;;;10.88
72054;BMP280;59918;51.280;7.950;2023-10-31T03:40:38;96185.13;;;10.82
72054;BMP280;59918;51.280;7.950;2023-10-31T03:43:04;96199.75;;;10.77
72054;BMP280;59918;51.280;7.950;2023-10-31T03:45:29;96201.00;;;10.74
72054;BMP280;59918;51.280;7.950;2023-10-31T03:47:54;96201.50;;;10.71
72054;BMP280;59918;51.280;7.950;2023-10-31T03:50:20;96210.97;;;10.71
72054;BMP280;59918;51.280;7.950;2023-10-31T03:52:45;96209.91;;;10.67
72054;BMP280;59918;51.280;7.950;2023-10-31T03:55:10;96216.09;;;10.66
72054;BMP280;59918;51.280;7.950;2023-10-31T03:57:35;96210.72;;;10.67
72054;BMP280;59918;51.280;7.950;2023-10-31T04:00:01;96221.22;;;10.66
72054;BMP280;59918;51.280;7.950;2023-10-31T04:02:26;96224.25;;;10.63
72054;BMP280;59918;51.280;7.950;2023-10-31T04:04:51;96221.16;;;10.61
72054;BMP280;59918;51.280;7.950;2023-10-31T04:07:16;96226.78;;;10.58
72054;BMP280;59918;51.280;7.950;2023-10-31T04:09:42;96236.31;;;10.57
72054;BMP280;59918;51.280;7.950;2023-10-31T04:12:07;96228.59;;;10.57
72054;BMP280;59918;51.280;7.950;2023-10-31T04:14:33;96237.84;;;10.58
72054;BMP280;59918;51.280;7.950;2023-10-31T04:16:58;96231.69;;;10.59
72054;BMP280;59918;51.280;7.950;2023-10-31T04:19:23;96233.00;;;10.62
72054;BMP280;59918;51.280;7.950;2023-10-31T04:21:48;96243.06;;;10.63
72054;BMP280;59918;51.280;7.950;2023-10-31T04:24:14;96244.81;;;10.63
72054;BMP280;59918;51.280;7.950;2023-10-31T04:26:42;96248.97;;;10.64
72054;BMP280;59918;51.280;7.950;2023-10-31T04:29:07;96255.09;;;10.63
72054;BMP280;59918;51.280;7.950;2023-10-31T04:31:32;96251.22;;;10.60
72054;BMP280;59918;51.280;7.950;2023-10-31T04:33:57;96262.78;;;10.58
72054;BMP280;59918;51.280;7.950;2023-10-31T04:36:23;96262.78;;;10.58
72054;BMP280;59918;51.280;7.950;2023-10-31T04:38:48;96259.13;;;10.54
72054;BMP280;59918;51.280;7.950;2023-10-31T04:41:13;96266.84;;;10.54
72054;BMP280;59918;51.280;7.950;2023-10-31T04:43:39;96260.94;;;10.54
72054;BMP280;59918;51.280;7.950;2023-10-31T04:46:04;96262.47;;;10.55
72054;BMP280;59918;51.280;7.950;2023-10-31T04:48:29;96260.44;;;10.56
72054;BMP280;59918;51.280;7.950;2023-10-31T04:50:55;96257.63;;;10.58
72054;BMP280;59918;51.280;7.950;2023-10-31T04:53:20;96260.19;;;10.58
72054;BMP280;59918;51.280;7.950;2023-10-31T04:55:45;96262.78;;;10.58
72054;BMP280;59918;51.280;7.950;2023-10-31T04:58:10;96259.97;;;10.59
72054;BMP280;59918;51.280;7.950;2023-10-31T05:00:36;96264.84;;;10.61
72054;BMP280;59918;51.280;7.950;2023-10-31T05:03:01;96263.31;;;10.60
72054;BMP280;59918;51.280;7.950;2023-10-31T05:05:26;96270.47;;;10.58
72054;BMP280;59918;51.280;7.950;2023-10-31T05:07:51;96273.06;;;10.58
72054;BMP280;59918;51.280;7.950;2023-10-31T05:10:17;96266.84;;;10.54
72054;BMP280;59918;51.280;7.950;2023-10-31T05:12:42;96258.47;;;10.42
72054;BMP280;59918;51.280;7.950;2023-10-31T05:15:07;96267.84;;;10.32
72054;BMP280;59918;51.280;7.950;2023-10-31T05:17:33;96273.13;;;10.25
72054;BMP280;59918;51.280;7.950;2023-10-31T05:19:58;96271.28;;;10.21
72054;BMP280;59918;51.280;7.950;2023-10-31T05:22:24;96270.53;;;10.20
72054;BMP280;59918;51.280;7.950;2023-10-31T05:24:49;96271.25;;;10.16
72054;BMP280;59918;51.280;7.950;2023-10-31T05:27:14;96273.50;;;10.13
72054;BMP280;59918;51.280;7.950;2023-10-31T05:29:42;96269.13;;;10.13
72054;BMP280;59918;51.280;7.950;2023-10-31T05:32:07;96282.47;;;10.10
72054;BMP280;59918;51.280;7.950;2023-10-31T05:34:32;96283.22;;;10.11
72054;BMP280;59918;51.280;7.950;2023-10-31T05:36:57;96286.78;;;10.10
72054;BMP280;59918;51.280;7.950;2023-10-31T05:39:23;96288.59;;;10.09
72054;BMP280;59918;51.280;7.950;2023-10-31T05:41:48;96295.28;;;10.10
72054;BMP280;59918;51.280;7.950;2023-10-31T05:44:13;96292.16;;;10.08
72054;BMP280;59918;51.280;7.950;2023-10-31T05:46:39;96293.50;;;10.11
72054;BMP280;59918;51.280;7.950;2023-10-31T05:49:06;96305.09;;;10.13
72054;BMP280;59918;51.280;7.950;2023-10-31T05:51:32;96306.88;;;10.13
72054;BMP280;59918;51.280;7.950;2023-10-31T05:53:57;96318.69;;;10.14
72054;BMP280;59918;51.280;7.950;2023-10-31T05:56:22;96319.25;;;10.16
72054;BMP280;59918;51.280;7.950;2023-10-31T05:58:47;96317.22;;;10.18
72054;BMP280;59918;51.280;7.950;2023-10-31T06:01:13;96319.31;;;10.20
72054;BMP280;59918;51.280;7.950;2023-10-31T06:04:03;96332.94;;;10.21
72054;BMP280;59918;51.280;7.950;2023-10-31T06:06:32;96333.97;;;10.20
72054;BMP280;59918;51.280;7.950;2023-10-31T06:08:57;96333.16;;;10.19
72054;BMP280;59918;51.280;7.950;2023-10-31T06:11:22;96336.53;;;10.20
72054;BMP280;59918;51.280;7.950;2023-10-31T06:13:47;96336.00;;;10.18
72054;BMP280;59918;51.280;7.950;2023-10-31T06:16:13;96333.88;;;10.15
72054;BMP280;59918;51.280;7.950;2023-10-31T06:18:38;96347.19;;;10.12
72054;BMP280;59918;51.280;7.950;2023-10-31T06:21:04;96356.13;;;10.10
72054;BMP280;59918;51.280;7.950;2023-10-31T06:23:29;96359.72;;;10.09
72054;BMP280;59918;51.280;7.950;2023-10-31T06:25:57;96362.06;;;10.10
72054;BMP280;59918;51.280;7.950;2023-10-31T06:28:23;96356.13;;;10.10
72054;BMP280;59918;51.280;7.950;2023-10-31T06:30:48;96353.03;;;10.08
72054;BMP280;59918;51.280;7.950;2023-10-31T06:33:13;96357.69;;;10.11
72054;BMP280;59918;51.280;7.950;2023-10-31T06:35:38;96353.88;;;10.13
72054;BMP280;59918;51.280;7.950;2023-10-31T06:38:04;96360.81;;;10.13
72054;BMP280;59918;51.280;7.950;2023-10-31T06:40:29;96365.72;;;10.14
72054;BMP280;59918;51.280;7.950;2023-10-31T06:42:54;96365.72;;;10.14
72054;BMP280;59918;51.280;7.950;2023-10-31T06:45:19;96367.50;;;10.14
72054;BMP280;59918;51.280;7.950;2023-10-31T06:47:45;96372.63;;;10.14
72054;BMP280;59918;51.280;7.950;2023-10-31T06:50:10;96377.53;;;10.15
72054;BMP280;59918;51.280;7.950;2023-10-31T06:52:38;96380.34;;;10.14
72054;BMP280;59918;51.280;7.950;2023-10-31T06:55:04;96380.34;;;10.14
72054;BMP280;59918;51.280;7.950;2023-10-31T06:57:29;96385.72;;;10.12
72054;BMP280;59918;51.280;7.950;2023-10-31T06:59:54;96390.84;;;10.12
72054;BMP280;59918;51.280;7.950;2023-10-31T07:02:20;96404.47;;;10.13
72054;BMP280;59918;51.280;7.950;2023-10-31T07:04:45;96398.31;;;10.14
72054;BMP280;59918;51.280;7.950;2023-10-31T07:07:10;96395.19;;;10.12
72054;BMP280;59918;51.280;7.950;2023-10-31T07:09:35;96403.16;;;10.10
72054;BMP280;59918;51.280;7.950;2023-10-31T07:12:01;96411.16;;;10.14
72054;BMP280;59918;51.280;7.950;2023-10-31T07:14:26;96419.50;;;10.20
72054;BMP280;59918;51.280;7.950;2023-10-31T07:16:51;96412.88;;;10.24
72054;BMP280;59918;51.280;7.950;2023-10-31T07:19:16;96423.59;;;10.21
72054;BMP280;59918;51.280;7.950;2023-10-31T07:21:42;96427.03;;;10.27
72054;BMP280;59918;51.280;7.950;2023-10-31T07:24:07;96432.94;;;10.27
72054;BMP280;59918;51.280;7.950;2023-10-31T07:26:33;96435.50;;;10.27
72054;BMP280;59918;51.280;7.950;2023-10-31T07:28:58;96431.47;;;10.31
72054;BMP280;59918;51.280;7.950;2023-10-31T07:31:23;96429.16;;;10.30
72054;BMP280;59918;51.280;7.950;2023-10-31T07:33:50;96436.59;;;10.31
72054;BMP280;59918;51.280;7.950;2023-10-31T07:36:16;96436.91;;;10.35
72054;BMP280;59918;51.280;7.950;2023-10-31T07:38:41;96437.94;;;10.34
72054;BMP280;59918;51.280;7.950;2023-10-31T07:41:07;96439.44;;;10.30
72054;BMP280;59918;51.280;7.950;2023-10-31T07:43:32;96441.13;;;10.41
72054;BMP280;59918;51.280;7.950;2023-10-31T07:45:59;96440.72;;;10.49
72054;BMP280;59918;51.280;7.950;2023-10-31T07:48:24;96445.41;;;10.52
72054;BMP280;59918;51.280;7.950;2023-10-31T07:50:50;96434.66;;;10.55
72054;BMP280;59918;51.280;7.950;2023-10-31T07:53:15;96437.59;;;10.63
72054;BMP280;59918;51.280;7.950;2023-10-31T07:55:40;96443.59;;;10.68
72054;BMP280;59918;51.280;7.950;2023-10-31T07:58:05;96462.06;;;10.65
72054;BMP280;59918;51.280;7.950;2023-10-31T08:00:31;96453.50;;;10.60
72054;BMP280;59918;51.280;7.950;2023-10-31T08:02:56;96454.03;;;10.62
72054;BMP280;59918;51.280;7.950;2023-10-31T08:05:27;96465.41;;;10.66
72054;BMP280;59918;51.280;7.950;2023-10-31T08:07:53;96459.94;;;10.62
72054;BMP280;59918;51.280;7.950;2023-10-31T08:10:18;96472.03;;;10.62
72054;BMP280;59918;51.280;7.950;2023-10-31T08:12:44;96472.75;;;10.57
72054;BMP280;59918;51.280;7.950;2023-10-31T08:15:09;96471.94;;;10.57
72054;BMP280;59918;51.280;7.950;2023-10-31T08:17:34;96474.78;;;10.56
72054;BMP280;59918;51.280;7.950;2023-10-31T08:20:00;96482.72;;;10.54
72054;BMP280;59918;51.280;7.950;2023-10-31T08:22:25;96485.50;;;10.53
72054;BMP280;59918;51.280;7.950;2023-10-31T08:24:50;96489.38;;;10.55
72054;BMP280;59918;51.280;7.950;2023-10-31T08:27:15;96482.22;;;10.57
72054;BMP280;59918;51.280;7.950;2023-10-31T08:29:41;96502.56;;;10.58
72054;BMP280;59918;51.280;7.950;2023-10-31T08:32:06;96490.47;;;10.59
72054;BMP280;59918;51.280;7.950;2023-10-31T08:34:31;96499.75;;;10.60
72054;BMP280;59918;51.280;7.950;2023-10-31T08:36:56;96496.66;;;10.58
72054;BMP280;59918;51.280;7.950;2023-10-31T08:39:22;96499.22;;;10.58
72054;BMP280;59918;51.280;7.950;2023-10-31T08:41:57;96507.38;;;10.55
72054;BMP280;59918;51.280;7.950;2023-10-31T08:44:23;96501.47;;;10.55
72054;BMP280;59918;51.280;7.950;2023-10-31T08:46:48;96503.81;;;10.56
72054;BMP280;59918;51.280;7.950;2023-10-31T08:49:16;96509.50;;;10.58
72054;BMP280;59918;51.280;7.950;2023-10-31T08:51:42;96513.31;;;10.56
72054;BMP280;59918;51.280;7.950;2023-10-31T08:54:08;96510.75;;;10.56
72054;BMP280;59918;51.280;7.950;2023-10-31T08:56:33;96531.31;;;10.56
72054;BMP280;59918;51.280;7.950;2023-10-31T08:58:58;96517.97;;;10.58
72054;BMP280;59918;51.280;7.950;2023-10-31T09:01:23;96527.66;;;10.68
72054;BMP280;59918;51.280;7.950;2023-10-31T09:03:49;96522.34;;;10.74
72054;BMP280;59918;51.280;7.950;2023-10-31T09:06:14;96532.72;;;10.79
72054;BMP280;59918;51.280;7.950;2023-10-31T09:08:39;96541.28;;;10.85
72054;BMP280;59918;51.280;7.950;2023-10-31T09:11:05;96549.47;;;10.82
72054;BMP280;59918;51.280;7.950;2023-10-31T09:13:31;96556.06;;;10.78
72054;BMP280;59918;51.280;7.950;2023-10-31T09:15:58;96552.75;;;10.77
72054;BMP280;59918;51.280;7.950;2023-10-31T09:18:23;96574.84;;;10.78
72054;BMP280;59918;51.280;7.950;2023-10-31T09:20:48;96584.28;;;10.73
72054;BMP280;59918;51.280;7.950;2023-10-31T09:23:14;96585.19;;;10.67
72054;BMP280;59918;51.280;7.950;2023-10-31T09:25:39;96592.63;;;10.63
72054;BMP280;59918;51.280;7.950;2023-10-31T09:28:04;96591.75;;;10.58
72054;BMP280;59918;51.280;7.950;2023-10-31T09:30:32;96586.28;;;10.55
72054;BMP280;59918;51.280;7.950;2023-10-31T09:32:57;96598.59;;;10.53
72054;BMP280;59918;51.280;7.950;2023-10-31T09:35:22;96599.28;;;10.48
72054;BMP280;59918;51.280;7.950;2023-10-31T09:37:48;96606.78;;;10.50
72054;BMP280;59918;51.280;7.950;2023-10-31T09:40:13;96613.78;;;10.54
72054;BMP280;59918;51.280;7.950;2023-10-31T09:42:38;96615.59;;;10.54
72054;BMP280;59918;51.280;7.950;2023-10-31T09:45:04;96618.69;;;10.56
72054;BMP280;59918;51.280;7.950;2023-10-31T09:47:30;96619.25;;;10.57
72054;BMP280;59918;51.280;7.950;2023-10-31T09:49:55;96640.22;;;10.66
72054;BMP280;59918;51.280;7.950;2023-10-31T09:52:22;96638.63;;;10.65
72054;BMP280;59918;51.280;7.950;2023-10-31T09:54:49;96627.91;;;10.68
72054;BMP280;59918;51.280;7.950;2023-10-31T09:57:14;96629.53;;;10.74
72054;BMP280;59918;51.280;7.950;2023-10-31T09:59:39;96640.94;;;10.78
72054;BMP280;59918;51.280;7.950;2023-10-31T10:02:05;96644.16;;;10.85
72054;BMP280;59918;51.280;7.950;2023-10-31T10:04:30;96645.25;;;10.89
72054;BMP280;59918;51.280;7.950;2023-10-31T10:07:00;96651.22;;;10.94
72054;BMP280;59918;51.280;7.950;2023-10-31T10:09:27;96659.03;;;10.99
72054;BMP280;59918;51.280;7.950;2023-10-31T10:11:52;96663.03;;;11.06
72054;BMP280;59918;51.280;7.950;2023-10-31T10:14:17;96653.97;;;11.20
72054;BMP280;59918;51.280;7.950;2023-10-31T10:16:43;96653.78;;;11.43
72054;BMP280;59918;51.280;7.950;2023-10-31T10:19:16;96662.50;;;11.53
72054;BMP280;59918;51.280;7.950;2023-10-31T10:24:17;96658.16;;;11.75
72054;BMP280;59918;51.280;7.950;2023-10-31T10:26:42;96654.38;;;11.82
72054;BMP280;59918;51.280;7.950;2023-10-31T10:29:07;96661.41;;;11.87
72054;BMP280;59918;51.280;7.950;2023-10-31T10:31:33;96670.13;;;11.86
72054;BMP280;59918;51.280;7.950;2023-10-31T10:33:58;96674.97;;;11.82
72054;BMP280;59918;51.280;7.950;2023-10-31T10:36:25;96672.47;;;11.87
72054;BMP280;59918;51.280;7.950;2023-10-31T10:38:52;96671.22;;;11.90
72054;BMP280;59918;51.280;7.950;2023-10-31T10:41:21;96683.22;;;12.01
72054;BMP280;59918;51.280;7.950;2023-10-31T10:43:47;96684.97;;;12.16
72054;BMP280;59918;51.280;7.950;2023-10-31T10:46:15;96670.94;;;12.29
72054;BMP280;59918;51.280;7.950;2023-10-31T10:48:46;96686.34;;;12.24
72054;BMP280;59918;51.280;7.950;2023-10-31T10:51:18;96688.84;;;12.19
72054;BMP280;59918;51.280;7.950;2023-10-31T10:53:54;96694.97;;;12.13
72054;BMP280;59918;51.280;7.950;2023-10-31T10:56:34;96689.47;;;12.04
72054;BMP280;59918;51.280;7.950;2023-10-31T10:59:03;96700.31;;;11.90
72054;BMP280;59918;51.280;7.950;2023-10-31T11:01:33;96698.56;;;11.74
72054;BMP280;59918;51.280;7.950;2023-10-31T11:04:00;96704.91;;;11.67
72054;BMP280;59918;51.280;7.950;2023-10-31T11:06:26;96705.16;;;11.66
72054;BMP280;59918;51.280;7.950;2023-10-31T11:08:52;96703.16;;;11.72
72054;BMP280;59918;51.280;7.950;2023-10-31T11:11:21;96694.91;;;11.70
72054;BMP280;59918;51.280;7.950;2023-10-31T11:13:47;96715.75;;;11.69
72054;BMP280;59918;51.280;7.950;2023-10-31T11:19:02;96712.31;;;11.64
72054;BMP280;59918;51.280;7.950;2023-10-31T11:21:31;96710.97;;;11.77
72054;BMP280;59918;51.280;7.950;2023-10-31T11:23:57;96708.56;;;12.08
72054;BMP280;59918;51.280;7.950;2023-10-31T11:26:29;96706.19;;;12.23
72054;BMP280;59918;51.280;7.950;2023-10-31T11:29:13;96710.03;;;12.21
72054;BMP280;59918;51.280;7.950;2023-10-31T11:31:38;96703.78;;;12.59
72054;BMP280;59918;51.280;7.950;2023-10-31T11:34:04;96704.09;;;13.15
72054;BMP280;59918;51.280;7.950;2023-10-31T11:36:32;96692.66;;;14.09
72054;BMP280;59918;51.280;7.950;2023-10-31T11:39:13;96697.22;;;14.43
72054;BMP280;59918;51.280;7.950;2023-10-31T11:41:39;96693.41;;;14.65
72054;BMP280;59918;51.280;7.950;2023-10-31T11:44:06;96683.34;;;14.79
72054;BMP280;59918;51.280;7.950;2023-10-31T11:46:32;96701.63;;;14.48
72054;BMP280;59918;51.280;7.950;2023-10-31T11:48:57;96698.69;;;13.84
72054;BMP280;59918;51.280;7.950;2023-10-31T11:51:22;96711.28;;;13.39
72054;BMP280;59918;51.280;7.950;2023-10-31T11:53:49;96708.63;;;13.03
72054;BMP280;59918;51.280;7.950;2023-10-31T11:56:15;96710.81;;;12.90
72054;BMP280;59918;51.280;7.950;2023-10-31T11:58:40;96714.22;;;12.90
72054;BMP280;59918;51.280;7.950;2023-10-31T12:01:08;96717.44;;;13.07
72054;BMP280;59918;51.280;7.950;2023-10-31T12:03:43;96707.44;;;13.78
72054;BMP280;59918;51.280;7.950;2023-10-31T12:06:09;96707.47;;;15.04
72054;BMP280;59918;51.280;7.950;2023-10-31T12:08:40;96709.06;;;15.64
72054;BMP280;59918;51.280;7.950;2023-10-31T12:11:10;96701.25;;;15.94
72054;BMP280;59918;51.280;7.950;2023-10-31T12:13:40;96710.38;;;15.37
72054;BMP280;59918;51.280;7.950;2023-10-31T12:16:08;96707.00;;;15.32
72054;BMP280;59918;51.280;7.950;2023-10-31T12:18:37;96705.94;;;15.32
72054;BMP280;59918;51.280;7.950;2023-10-31T12:21:02;96695.50;;;16.06
72054;BMP280;59918;51.280;7.950;2023-10-31T12:23:28;96706.75;;;16.60
72054;BMP280;59918;51.280;7.950;2023-10-31T12:25:54;96707.78;;;17.07
72054;BMP280;59918;51.280;7.950;2023-10-31T12:28:24;96704.56;;;16.24
72054;BMP280;59918;51.280;7.950;2023-10-31T12:30:52;96696.84;;;18.32
72054;BMP280;59918;51.280;7.950;2023-10-31T12:33:18;96704.38;;;18.10
72054;BMP280;59918;51.280;7.950;2023-10-31T12:35:43;96714.03;;;17.06
72054;BMP280;59918;51.280;7.950;2023-10-31T12:38:13;96707.16;;;17.62
72054;BMP280;59918;51.280;7.950;2023-10-31T12:40:40;96720.06;;;16.96
72054;BMP280;59918;51.280;7.950;2023-10-31T12:43:06;96723.13;;;16.55
72054;BMP280;59918;51.280;7.950;2023-10-31T12:45:31;96717.66;;;17.10
72054;BMP280;59918;51.280;7.950;2023-10-31T12:48:04;96713.41;;;16.80
72054;BMP280;59918;51.280;7.950;2023-10-31T12:50:30;96716.13;;;17.47
72054;BMP280;59918;51.280;7.950;2023-10-31T12:52:55;96718.50;;;16.95
72054;BMP280;59918;51.280;7.950;2023-10-31T12:55:23;96726.22;;;16.62
72054;BMP280;59918;51.280;7.950;2023-10-31T12:57:49;96728.59;;;16.49
72054;BMP280;59918;51.280;7.950;2023-10-31T13:00:15;96714.19;;;16.18
72054;BMP280;59918;51.280;7.950;2023-10-31T13:03:04;96707.69;;;18.16
72054;BMP280;59918;51.280;7.950;2023-10-31T13:05:29;96701.25;;;19.96
72054;BMP280;59918;51.280;7.950;2023-10-31T13:07:56;96707.66;;;21.53
72054;BMP280;59918;51.280;7.950;2023-10-31T13:10:24;96709.75;;;22.16
72054;BMP280;59918;51.280;7.950;2023-10-31T13:12:51;96717.22;;;22.09
72054;BMP280;59918;51.280;7.950;2023-10-31T13:15:18;96704.25;;;21.74
72054;BMP280;59918;51.280;7.950;2023-10-31T13:17:44;96705.16;;;20.25
72054;BMP280;59918;51.280;7.950;2023-10-31T13:20:10;96715.34;;;19.81
72054;BMP280;59918;51.280;7.950;2023-10-31T13:22:37;96713.16;;;19.20
72054;BMP280;59918;51.280;7.950;2023-10-31T13:25:04;96729.38;;;18.34
72054;BMP280;59918;51.280;7.950;2023-10-31T13:27:29;96724.03;;;17.65
72054;BMP280;59918;51.280;7.950;2023-10-31T13:29:54;96729.44;;;16.87
72054;BMP280;59918;51.280;7.950;2023-10-31T13:32:20;96731.28;;;16.14
72054;BMP280;59918;51.280;7.950;2023-10-31T13:34:45;96732.66;;;15.72
72054;BMP280;59918;51.280;7.950;2023-10-31T13:37:10;96729.03;;;15.49
72054;BMP280;59918;51.280;7.950;2023-10-31T13:39:35;96727.69;;;15.96
72054;BMP280;59918;51.280;7.950;2023-10-31T13:42:01;96731.84;;;15.92
72054;BMP280;59918;51.280;7.950;2023-10-31T13:44:26;96734.81;;;17.49
72054;BMP280;59918;51.280;7.950;2023-10-31T13:46:51;96734.81;;;18.05
72054;BMP280;59918;51.280;7.950;2023-10-31T13:49:16;96745.28;;;18.51
72054;BMP280;59918;51.280;7.950;2023-10-31T13:51:42;96728.00;;;19.88
72054;BMP280;59918;51.280;7.950;2023-10-31T13:54:07;96728.06;;;20.81
72054;BMP280;59918;51.280;7.950;2023-10-31T13:56:32;96739.63;;;22.24
72054;BMP280;59918;51.280;7.950;2023-10-31T13:58:57;96729.13;;;23.51
72054;BMP280;59918;51.280;7.950;2023-10-31T14:01:23;96717.50;;;24.76
72054;BMP280;59918;51.280;7.950;2023-10-31T14:03:48;96721.13;;;25.61
72054;BMP280;59918;51.280;7.950;2023-10-31T14:06:16;96728.53;;;24.70
72054;BMP280;59918;51.280;7.950;2023-10-31T14:08:41;96728.59;;;24.53